首页
METAR-TAF:

METAR-TAF

机场 :

維也納新城, 奥地利

纬度: 47-50-36N, 经度: 016-15-29E, 海拔: 272米

当前天气观测

该预报发布于34分钟前的18:00 UTC
风速2节,风向多变
温度
气压

METAR: LOAN 071800Z VRB02KT 35KM FEW080AC

时间: 20:34 (18:34 UTC)

预报

该预报发布于7小时和9分钟前的11:25 UTC
预报有效从07日的 12点(UTC)到 07日的 21点(UTC)
风速8节,风向东转东北
能见度10公里或以上
少量云层高于6000英尺

TAF: LOAN 071125Z 0712/0721 07008KT 9999 FEW060

超过4000个机场的气象观测和天气预报(METAR&TAF报告)。

可查询的气象台以黄色和红色小点在地图上表示。

将鼠标移到小点上方,可查看气象台名称。

然后点击查看天气观测和预报。

如需切换地图:点击带黑十字的绿色按钮放大地图;点击带横线的绿色按钮缩小地图;或者点击绿色箭头查看邻近地区的地图。


METAR-TAF: